createdAt,value
2022-11-14T00:00:59.071Z,5.21
2022-11-14T00:03:25.684Z,5.39
2022-11-14T00:05:52.255Z,5.30
2022-11-14T00:08:22.625Z,5.04
2022-11-14T00:10:51.193Z,4.87
2022-11-14T00:13:19.359Z,5.01
2022-11-14T00:15:49.280Z,4.96
2022-11-14T00:18:16.305Z,5.03
2022-11-14T00:20:42.917Z,5.05
2022-11-14T00:23:09.482Z,5.01
2022-11-14T00:25:36.158Z,5.02
2022-11-14T00:28:02.764Z,5.47
2022-11-14T00:30:29.366Z,5.36
2022-11-14T00:32:56.051Z,5.29
2022-11-14T00:35:22.654Z,5.28
2022-11-14T00:37:49.246Z,5.51
2022-11-14T00:40:16.219Z,5.37
2022-11-14T00:42:42.824Z,5.56
2022-11-14T00:45:09.929Z,5.79
2022-11-14T00:47:37.081Z,5.72
2022-11-14T00:50:04.568Z,5.67
2022-11-14T00:52:31.208Z,5.56
2022-11-14T00:54:57.856Z,5.54
2022-11-14T00:57:24.454Z,5.76
2022-11-14T00:59:51.030Z,5.85
2022-11-14T01:02:17.610Z,5.79
2022-11-14T01:04:44.264Z,5.68
2022-11-14T01:07:10.856Z,5.40
2022-11-14T01:09:37.508Z,5.46
2022-11-14T01:12:04.340Z,5.28
2022-11-14T01:14:30.924Z,5.61
2022-11-14T01:16:57.576Z,5.52
2022-11-14T01:19:24.221Z,5.65
2022-11-14T01:21:50.814Z,5.58
2022-11-14T01:24:17.412Z,5.58
2022-11-14T01:26:43.991Z,5.38
2022-11-14T01:29:10.591Z,5.47
2022-11-14T01:31:37.231Z,5.72
2022-11-14T01:34:03.860Z,5.62
2022-11-14T01:36:30.434Z,5.65
2022-11-14T01:38:57.005Z,6.05
2022-11-14T01:41:23.660Z,5.99
2022-11-14T01:43:50.291Z,5.84
2022-11-14T01:46:22.218Z,6.02
2022-11-14T01:49:05.631Z,6.04
2022-11-14T01:51:42.942Z,6.17
2022-11-14T01:54:19.084Z,5.96
2022-11-14T01:56:58.838Z,6.06
2022-11-14T01:59:31.042Z,5.96
2022-11-14T02:02:02.937Z,6.08
2022-11-14T02:04:38.107Z,6.16
2022-11-14T02:07:06.566Z,6.23
2022-11-14T02:09:36.954Z,6.19
2022-11-14T02:12:07.509Z,6.17
2022-11-14T02:14:37.925Z,6.18
2022-11-14T02:17:28.345Z,6.29
2022-11-14T02:19:54.908Z,5.84
2022-11-14T02:22:21.593Z,6.05
2022-11-14T02:24:48.189Z,5.93
2022-11-14T02:27:15.619Z,5.73
2022-11-14T02:29:42.602Z,5.65
2022-11-14T02:32:10.879Z,5.60
2022-11-14T02:34:38.615Z,5.61
2022-11-14T02:37:06.091Z,5.54
2022-11-14T02:39:32.677Z,5.46
2022-11-14T02:41:59.611Z,5.53
2022-11-14T02:44:26.253Z,5.29
2022-11-14T02:46:52.893Z,5.19
2022-11-14T02:49:19.485Z,5.11
2022-11-14T02:51:46.073Z,5.29
2022-11-14T02:54:12.651Z,5.53
2022-11-14T02:56:39.226Z,5.30
2022-11-14T02:59:05.812Z,5.55
2022-11-14T03:01:32.468Z,5.29
2022-11-14T03:03:59.140Z,5.22
2022-11-14T03:06:25.742Z,4.87
2022-11-14T03:08:52.507Z,4.84
2022-11-14T03:11:19.069Z,5.03
2022-11-14T03:13:45.645Z,4.95
2022-11-14T03:16:13.639Z,5.01
2022-11-14T03:18:40.284Z,4.85
2022-11-14T03:21:08.783Z,5.07
2022-11-14T03:23:35.584Z,4.86
2022-11-14T03:26:04.204Z,5.05
2022-11-14T03:28:30.979Z,5.14
2022-11-14T03:30:58.003Z,5.33
2022-11-14T03:33:25.280Z,5.10
2022-11-14T03:35:52.941Z,5.03
2022-11-14T03:38:20.534Z,4.71
2022-11-14T03:40:47.144Z,4.87
2022-11-14T03:43:13.745Z,4.34
2022-11-14T03:45:40.339Z,4.54
2022-11-14T03:48:07.479Z,4.56
2022-11-14T03:50:34.130Z,4.72
2022-11-14T03:53:00.949Z,4.88
2022-11-14T03:55:28.165Z,4.77
2022-11-14T03:57:54.768Z,4.82
2022-11-14T04:00:21.628Z,4.87
2022-11-14T04:02:48.214Z,4.75
2022-11-14T04:05:14.896Z,4.70
2022-11-14T04:07:41.466Z,4.83
2022-11-14T04:10:08.480Z,5.04
2022-11-14T04:12:35.105Z,4.81
2022-11-14T04:15:01.682Z,4.53
2022-11-14T04:17:28.332Z,4.11
2022-11-14T04:19:54.973Z,4.30
2022-11-14T04:22:21.624Z,4.14
2022-11-14T04:24:48.205Z,4.16
2022-11-14T04:27:14.812Z,4.36
2022-11-14T04:29:41.390Z,4.31
2022-11-14T04:32:08.007Z,4.29
2022-11-14T04:34:34.642Z,4.49
2022-11-14T04:37:01.271Z,4.74
2022-11-14T04:39:27.859Z,4.65
2022-11-14T04:41:54.661Z,4.51
2022-11-14T04:44:21.237Z,4.64
2022-11-14T04:46:47.826Z,4.36
2022-11-14T04:49:14.488Z,4.41
2022-11-14T04:51:41.082Z,4.54
2022-11-14T04:54:07.804Z,4.43
2022-11-14T04:56:34.486Z,4.37
2022-11-14T04:59:01.089Z,4.46
2022-11-14T05:01:27.796Z,4.99
2022-11-14T05:03:54.477Z,5.05
2022-11-14T05:06:21.104Z,4.87
2022-11-14T05:08:47.692Z,4.52
2022-11-14T05:11:19.602Z,4.48
2022-11-14T05:13:47.081Z,4.50
2022-11-14T05:16:13.998Z,4.82
2022-11-14T05:18:45.823Z,4.71
2022-11-14T05:21:15.184Z,4.65
2022-11-14T05:23:41.787Z,4.70
2022-11-14T05:26:14.633Z,4.98
2022-11-14T05:28:41.300Z,4.85
2022-11-14T05:31:10.597Z,4.57
2022-11-14T05:33:37.192Z,4.71
2022-11-14T05:36:05.535Z,4.76
2022-11-14T05:38:32.583Z,4.68
2022-11-14T05:40:59.500Z,4.68
2022-11-14T05:43:28.802Z,4.36
2022-11-14T05:46:02.817Z,4.35
2022-11-14T05:48:30.552Z,4.60
2022-11-14T05:51:02.447Z,4.60
2022-11-14T05:53:30.610Z,4.87
2022-11-14T05:56:01.729Z,4.99
2022-11-14T05:58:28.933Z,4.95
2022-11-14T06:01:14.328Z,5.33
2022-11-14T06:03:43.851Z,4.86
2022-11-14T06:06:13.306Z,4.75
2022-11-14T06:08:40.495Z,4.81
2022-11-14T06:11:13.591Z,4.71
2022-11-14T06:13:41.575Z,4.59
2022-11-14T06:16:12.216Z,4.70
2022-11-14T06:18:39.535Z,4.90
2022-11-14T06:21:12.811Z,4.52
2022-11-14T06:23:39.450Z,4.90
2022-11-14T06:26:19.098Z,4.79
2022-11-14T06:28:45.685Z,5.15
2022-11-14T06:31:12.291Z,5.26
2022-11-14T06:33:38.888Z,4.81
2022-11-14T06:36:07.474Z,4.63
2022-11-14T06:38:36.199Z,4.61
2022-11-14T06:41:10.784Z,4.74
2022-11-14T06:43:40.027Z,4.37
2022-11-14T06:46:08.494Z,4.11
2022-11-14T06:48:35.756Z,3.95
2022-11-14T06:51:03.452Z,3.77
2022-11-14T06:53:31.854Z,3.78
2022-11-14T06:56:01.987Z,3.72
2022-11-14T06:58:34.834Z,4.03
2022-11-14T07:01:06.198Z,4.10
2022-11-14T07:03:33.706Z,4.03
2022-11-14T07:06:01.458Z,4.14
2022-11-14T07:08:28.413Z,3.72
2022-11-14T07:10:55.021Z,4.13
2022-11-14T07:13:21.625Z,4.51
2022-11-14T07:15:55.266Z,4.46
2022-11-14T07:18:21.835Z,4.36
2022-11-14T07:20:48.653Z,3.93
2022-11-14T07:23:18.639Z,4.16
2022-11-14T07:25:49.197Z,4.80
2022-11-14T07:28:15.798Z,4.66
2022-11-14T07:30:42.378Z,4.16
2022-11-14T07:33:09.020Z,3.93
2022-11-14T07:35:35.627Z,3.99
2022-11-14T07:38:03.771Z,4.24
2022-11-14T07:40:30.409Z,4.10
2022-11-14T07:43:00.783Z,4.26
2022-11-14T07:45:28.770Z,4.46
2022-11-14T07:48:00.784Z,4.60
2022-11-14T07:50:28.450Z,4.71
2022-11-14T07:52:56.399Z,4.45
2022-11-14T07:55:23.555Z,4.53
2022-11-14T07:57:53.878Z,4.29
2022-11-14T08:00:20.831Z,4.38
2022-11-14T08:02:48.002Z,4.56
2022-11-14T08:05:14.597Z,4.32
2022-11-14T08:07:41.286Z,4.62
2022-11-14T08:10:08.477Z,4.73
2022-11-14T08:12:35.062Z,4.54
2022-11-14T08:15:01.723Z,4.56
2022-11-14T08:17:28.310Z,4.30
2022-11-14T08:19:54.925Z,4.55
2022-11-14T08:22:21.572Z,4.49
2022-11-14T08:24:48.163Z,4.42
2022-11-14T08:27:14.752Z,4.51
2022-11-14T08:29:41.336Z,4.29
2022-11-14T08:32:08.049Z,4.34
2022-11-14T08:34:34.761Z,4.35
2022-11-14T08:37:01.754Z,4.45
2022-11-14T08:39:28.748Z,4.56
2022-11-14T08:41:55.413Z,4.74
2022-11-14T08:44:22.028Z,4.97
2022-11-14T08:46:50.481Z,5.19
2022-11-14T08:49:17.261Z,5.81
2022-11-14T08:51:43.879Z,5.27
2022-11-14T08:54:10.617Z,5.35
2022-11-14T08:56:37.220Z,5.83
2022-11-14T08:59:04.775Z,5.86
2022-11-14T09:01:31.369Z,5.64
2022-11-14T09:04:00.012Z,5.47
2022-11-14T09:06:26.885Z,5.21
2022-11-14T09:08:53.538Z,5.00
2022-11-14T09:11:20.587Z,4.93
2022-11-14T09:13:47.189Z,5.10
2022-11-14T09:16:13.783Z,5.26
2022-11-14T09:18:40.389Z,5.57
2022-11-14T09:21:08.764Z,5.56
2022-11-14T09:23:36.080Z,5.60
2022-11-14T09:26:09.886Z,5.64
2022-11-14T09:28:37.438Z,5.62
2022-11-14T09:31:10.146Z,5.75
2022-11-14T09:33:36.823Z,6.09
2022-11-14T09:36:08.617Z,5.99
2022-11-14T09:38:38.401Z,5.92
2022-11-14T09:41:31.689Z,6.16
2022-11-14T09:44:24.593Z,6.19
2022-11-14T09:47:00.136Z,6.27
2022-11-14T09:49:39.880Z,6.44
2022-11-14T09:52:15.829Z,6.75
2022-11-14T09:54:51.662Z,7.01
2022-11-14T09:57:20.461Z,6.83
2022-11-14T09:59:47.435Z,7.03
2022-11-14T10:02:25.902Z,7.03
2022-11-14T10:05:11.215Z,7.01
2022-11-14T10:07:54.235Z,6.98
2022-11-14T10:10:38.664Z,7.30
2022-11-14T10:13:41.019Z,7.78
2022-11-14T10:16:18.604Z,7.96
2022-11-14T10:18:51.558Z,8.51
2022-11-14T10:21:50.754Z,8.81
2022-11-14T10:24:23.137Z,8.84
2022-11-14T10:26:52.717Z,9.06
2022-11-14T10:29:28.276Z,9.03
2022-11-14T10:32:21.641Z,9.03
2022-11-14T10:35:14.269Z,9.31
2022-11-14T10:37:49.595Z,9.38
2022-11-14T10:40:28.076Z,9.45
2022-11-14T10:43:25.539Z,9.55
2022-11-14T10:46:25.541Z,9.82
2022-11-14T10:48:56.290Z,9.99
2022-11-14T10:51:34.118Z,9.99
2022-11-14T10:54:09.822Z,10.07
2022-11-14T10:56:53.872Z,10.16
2022-11-14T10:59:21.441Z,9.92
2022-11-14T11:01:51.063Z,10.35
2022-11-14T11:04:29.777Z,10.60
2022-11-14T11:07:17.910Z,10.37
2022-11-14T11:09:59.771Z,10.30
2022-11-14T11:12:41.065Z,10.58
2022-11-14T11:15:23.586Z,10.78
2022-11-14T11:17:58.652Z,10.91
2022-11-14T11:20:27.851Z,11.12
2022-11-14T11:23:07.386Z,10.98
2022-11-14T11:25:34.800Z,10.90
2022-11-14T11:28:11.813Z,11.12
2022-11-14T11:30:38.937Z,10.96
2022-11-14T11:33:21.697Z,11.22
2022-11-14T11:35:50.507Z,11.10
2022-11-14T11:38:17.714Z,11.18
2022-11-14T11:40:48.328Z,11.29
2022-11-14T11:46:40.780Z,10.93
2022-11-14T11:49:16.240Z,11.40
2022-11-14T11:51:46.071Z,11.28
2022-11-14T11:54:19.858Z,11.28
2022-11-14T11:56:52.053Z,11.13
2022-11-14T11:59:35.587Z,11.25
2022-11-14T12:02:19.132Z,11.40
2022-11-14T12:04:45.913Z,11.29
2022-11-14T12:07:17.808Z,11.59
2022-11-14T12:12:31.040Z,11.66
2022-11-14T12:14:57.550Z,11.80
2022-11-14T12:17:50.142Z,11.81
2022-11-14T12:20:47.242Z,11.80
2022-11-14T12:23:32.903Z,11.69
2022-11-14T12:26:05.966Z,11.80
2022-11-14T12:28:50.615Z,12.02
2022-11-14T12:31:18.358Z,12.04
2022-11-14T12:34:14.094Z,11.95
2022-11-14T12:36:44.562Z,12.11
2022-11-14T12:39:30.959Z,11.93
2022-11-14T12:42:06.807Z,11.71
2022-11-14T12:44:38.970Z,11.80
2022-11-14T12:47:05.654Z,11.87
2022-11-14T12:49:47.557Z,11.70
2022-11-14T12:52:51.656Z,11.59
2022-11-14T12:55:24.337Z,11.83
2022-11-14T12:57:58.148Z,12.04
2022-11-14T13:00:25.366Z,12.16
2022-11-14T13:03:13.878Z,12.25
2022-11-14T13:06:01.275Z,11.63
2022-11-14T13:08:40.695Z,11.76
2022-11-14T13:11:31.960Z,11.78
2022-11-14T13:14:02.227Z,11.62
2022-11-14T13:16:32.649Z,11.68
2022-11-14T13:19:03.590Z,11.88
2022-11-14T13:21:31.120Z,11.77
2022-11-14T13:23:58.032Z,11.85
2022-11-14T13:26:24.553Z,11.87
2022-11-14T13:28:52.816Z,12.01
2022-11-14T13:31:26.291Z,12.05
2022-11-14T13:33:58.351Z,12.03
2022-11-14T13:36:27.790Z,12.03
2022-11-14T13:39:09.637Z,12.12
2022-11-14T13:42:13.751Z,11.85
2022-11-14T13:45:16.840Z,11.76
2022-11-14T13:47:46.081Z,11.56
2022-11-14T13:50:16.990Z,11.60
2022-11-14T13:52:46.835Z,11.65
2022-11-14T13:55:28.222Z,11.56
2022-11-14T13:57:57.715Z,11.29
2022-11-14T14:00:24.327Z,11.12
2022-11-14T14:02:59.688Z,10.98
2022-11-14T14:06:05.112Z,10.97
2022-11-14T14:08:57.365Z,11.10
2022-11-14T14:11:38.927Z,10.89
2022-11-14T14:14:51.973Z,11.15
2022-11-14T14:17:52.914Z,10.97
2022-11-14T14:20:40.267Z,10.78
2022-11-14T14:23:25.475Z,11.19
2022-11-14T14:26:07.605Z,10.97
2022-11-14T14:29:29.657Z,10.66
2022-11-14T14:32:06.801Z,10.85
2022-11-14T14:34:33.398Z,11.00
2022-11-14T14:37:00.105Z,11.14
2022-11-14T14:39:28.645Z,10.77
2022-11-14T14:41:57.890Z,10.29
2022-11-14T14:44:28.795Z,10.38
2022-11-14T14:46:55.646Z,10.44
2022-11-14T14:49:27.501Z,10.30
2022-11-14T14:51:58.345Z,10.06
2022-11-14T14:54:27.785Z,10.04
2022-11-14T14:56:57.138Z,9.82
2022-11-14T14:59:25.245Z,9.64
2022-11-14T15:01:51.966Z,9.80
2022-11-14T15:04:22.126Z,9.66
2022-11-14T15:06:50.025Z,9.95
2022-11-14T15:09:22.797Z,9.57
2022-11-14T15:11:52.201Z,9.61
2022-11-14T15:14:22.873Z,9.32
2022-11-14T15:16:50.986Z,9.54
2022-11-14T15:19:23.971Z,9.34
2022-11-14T15:22:03.902Z,9.20
2022-11-14T15:24:30.758Z,9.28
2022-11-14T15:26:57.857Z,9.26
2022-11-14T15:29:27.811Z,9.18
2022-11-14T15:32:04.767Z,8.99
2022-11-14T15:34:33.846Z,8.91
2022-11-14T15:37:15.446Z,8.79
2022-11-14T15:39:43.301Z,8.75
2022-11-14T15:42:27.708Z,8.60
2022-11-14T15:44:55.636Z,8.65
2022-11-14T15:47:23.847Z,8.66
2022-11-14T15:50:06.640Z,8.65
2022-11-14T15:52:52.318Z,8.56
2022-11-14T15:55:21.191Z,8.49
2022-11-14T15:57:55.849Z,8.49
2022-11-14T16:00:33.563Z,8.38
2022-11-14T16:03:00.300Z,8.39
2022-11-14T16:05:29.455Z,8.29
2022-11-14T16:07:56.873Z,8.15
2022-11-14T16:10:26.079Z,8.11
2022-11-14T16:12:53.047Z,8.17
2022-11-14T16:15:20.636Z,8.11
2022-11-14T16:17:49.628Z,8.14
2022-11-14T16:20:25.824Z,8.02
2022-11-14T16:22:53.658Z,8.08
2022-11-14T16:25:24.771Z,7.89
2022-11-14T16:27:51.910Z,7.81
2022-11-14T16:30:20.376Z,7.78
2022-11-14T16:32:48.876Z,7.81
2022-11-14T16:35:18.707Z,7.76
2022-11-14T16:37:45.820Z,7.77
2022-11-14T16:40:20.662Z,7.60
2022-11-14T16:42:47.422Z,7.48
2022-11-14T16:45:14.265Z,7.50
2022-11-14T16:47:40.928Z,7.52
2022-11-14T16:50:08.461Z,7.54
2022-11-14T16:52:35.101Z,7.55
2022-11-14T16:55:01.705Z,7.27
2022-11-14T16:57:28.273Z,7.34
2022-11-14T16:59:54.936Z,7.42
2022-11-14T17:02:21.665Z,7.46
2022-11-14T17:04:48.329Z,7.35
2022-11-14T17:07:17.745Z,7.45
2022-11-14T17:09:48.291Z,7.68
2022-11-14T17:12:15.019Z,7.54
2022-11-14T17:14:41.606Z,7.12
2022-11-14T17:17:08.179Z,7.45
2022-11-14T17:19:34.817Z,7.28
2022-11-14T17:22:01.388Z,7.09
2022-11-14T17:24:31.408Z,7.43
2022-11-14T17:26:58.466Z,7.31
2022-11-14T17:29:25.053Z,7.13
2022-11-14T17:31:51.723Z,7.50
2022-11-14T17:34:18.310Z,7.55
2022-11-14T17:36:44.930Z,7.32
2022-11-14T17:39:11.545Z,7.06
2022-11-14T17:41:38.142Z,6.92
2022-11-14T17:44:04.915Z,6.58
2022-11-14T17:46:31.579Z,6.52
2022-11-14T17:48:58.777Z,6.56
2022-11-14T17:51:25.378Z,6.96
2022-11-14T17:53:52.049Z,7.12
2022-11-14T17:56:21.530Z,7.06
2022-11-14T17:58:50.543Z,6.93
2022-11-14T18:01:20.538Z,6.86
2022-11-14T18:03:47.920Z,7.03
2022-11-14T18:06:20.002Z,6.68
2022-11-14T18:08:47.374Z,6.59
2022-11-14T18:11:16.237Z,6.78
2022-11-14T18:13:42.912Z,6.74
2022-11-14T18:16:15.874Z,7.26
2022-11-14T18:18:43.047Z,7.17
2022-11-14T18:21:13.579Z,7.20
2022-11-14T18:23:40.252Z,6.98
2022-11-14T18:26:27.645Z,6.98
2022-11-14T18:28:56.025Z,6.63
2022-11-14T18:31:23.607Z,6.49
2022-11-14T18:33:50.496Z,6.29
2022-11-14T18:36:17.984Z,6.29
2022-11-14T18:38:45.271Z,6.60
2022-11-14T18:41:17.666Z,6.90
2022-11-14T18:43:45.331Z,6.84
2022-11-14T18:46:16.773Z,6.59
2022-11-14T18:48:46.335Z,5.91
2022-11-14T18:51:16.470Z,6.33
2022-11-14T18:53:43.164Z,6.40
2022-11-14T18:56:12.468Z,6.28
2022-11-14T18:58:40.213Z,6.41
2022-11-14T19:01:15.973Z,6.75
2022-11-14T19:03:42.834Z,6.48
2022-11-14T19:06:11.521Z,6.33
2022-11-14T19:08:38.357Z,6.11
2022-11-14T19:11:07.451Z,6.39
2022-11-14T19:13:34.826Z,6.29
2022-11-14T19:16:05.967Z,6.87
2022-11-14T19:18:32.580Z,6.55
2022-11-14T19:21:01.677Z,6.51
2022-11-14T19:23:29.370Z,6.47
2022-11-14T19:25:59.529Z,6.42
2022-11-14T19:28:26.729Z,5.88
2022-11-14T19:30:53.363Z,5.86
2022-11-14T19:33:19.938Z,6.31
2022-11-14T19:35:46.535Z,5.74
2022-11-14T19:38:13.621Z,5.76
2022-11-14T19:40:40.237Z,5.82
2022-11-14T19:43:06.818Z,5.76
2022-11-14T19:45:34.190Z,5.69
2022-11-14T19:48:00.894Z,5.66
2022-11-14T19:50:27.502Z,5.65
2022-11-14T19:52:54.079Z,6.02
2022-11-14T19:55:23.506Z,6.21
2022-11-14T19:57:50.125Z,6.42
2022-11-14T20:00:17.057Z,6.07
2022-11-14T20:02:46.762Z,6.15
2022-11-14T20:05:13.351Z,6.09
2022-11-14T20:07:39.940Z,5.94
2022-11-14T20:10:08.098Z,5.71
2022-11-14T20:12:34.721Z,5.64
2022-11-14T20:15:01.897Z,6.13
2022-11-14T20:17:28.517Z,5.96
2022-11-14T20:19:55.144Z,5.32
2022-11-14T20:22:21.756Z,5.44
2022-11-14T20:24:50.454Z,5.06
2022-11-14T20:27:17.122Z,5.10
2022-11-14T20:29:43.775Z,5.25
2022-11-14T20:32:15.471Z,5.48
2022-11-14T20:34:42.943Z,5.53
2022-11-14T20:37:11.491Z,5.72
2022-11-14T20:39:38.692Z,5.44
2022-11-14T20:42:05.366Z,5.44
2022-11-14T20:44:32.007Z,5.22
2022-11-14T20:46:58.591Z,5.51
2022-11-14T20:49:25.199Z,5.69
2022-11-14T20:51:51.803Z,5.42
2022-11-14T20:54:18.440Z,5.20
2022-11-14T20:56:45.135Z,4.93
2022-11-14T20:59:11.718Z,5.09
2022-11-14T21:01:43.418Z,5.14
2022-11-14T21:04:10.862Z,4.89
2022-11-14T21:06:37.466Z,4.87
2022-11-14T21:09:04.087Z,4.87
2022-11-14T21:11:30.655Z,5.11
2022-11-14T21:13:57.889Z,5.17
2022-11-14T21:16:31.637Z,5.29
2022-11-14T21:18:59.127Z,5.42
2022-11-14T21:21:26.869Z,4.94
2022-11-14T21:23:54.596Z,4.97
2022-11-14T21:26:31.458Z,5.05
2022-11-14T21:29:00.558Z,5.05
2022-11-14T21:31:33.311Z,5.06
2022-11-14T21:34:02.190Z,4.82
2022-11-14T21:36:46.779Z,4.98
2022-11-14T21:39:15.861Z,4.93
2022-11-14T21:41:43.835Z,4.94
2022-11-14T21:44:12.608Z,4.86
2022-11-14T21:46:39.199Z,4.65
2022-11-14T21:49:05.771Z,4.55
2022-11-14T21:51:32.346Z,4.43
2022-11-14T21:53:59.018Z,4.32
2022-11-14T21:56:28.417Z,4.56
2022-11-14T21:58:55.433Z,4.34
2022-11-14T22:01:22.446Z,4.24
2022-11-14T22:03:49.074Z,4.49
2022-11-14T22:06:15.686Z,4.64
2022-11-14T22:08:42.374Z,4.60
2022-11-14T22:11:09.408Z,4.28
2022-11-14T22:13:36.016Z,3.84
2022-11-14T22:16:06.387Z,3.86
2022-11-14T22:18:32.978Z,3.76
2022-11-14T22:20:59.684Z,3.69
2022-11-14T22:23:27.913Z,3.52
2022-11-14T22:25:59.041Z,3.55
2022-11-14T22:28:26.474Z,3.64
2022-11-14T22:31:08.253Z,3.76
2022-11-14T22:33:36.734Z,3.47
2022-11-14T22:36:11.696Z,3.41
2022-11-14T22:38:39.434Z,3.34
2022-11-14T22:41:07.754Z,3.46
2022-11-14T22:43:35.136Z,3.38
2022-11-14T22:46:01.898Z,3.40
2022-11-14T22:48:31.215Z,3.51
2022-11-14T22:51:05.700Z,3.67
2022-11-14T22:53:34.470Z,3.33
2022-11-14T22:56:01.890Z,3.49
2022-11-14T22:58:33.476Z,2.94
2022-11-14T23:01:00.858Z,3.06
2022-11-14T23:03:28.027Z,3.11
2022-11-14T23:05:54.733Z,3.05
2022-11-14T23:08:21.409Z,3.21
2022-11-14T23:10:48.286Z,3.52
2022-11-14T23:13:15.184Z,3.61
2022-11-14T23:15:47.431Z,3.27
2022-11-14T23:18:14.034Z,3.54
2022-11-14T23:20:40.609Z,3.51
2022-11-14T23:23:07.301Z,3.51
2022-11-14T23:25:35.935Z,3.42
2022-11-14T23:28:02.533Z,3.23
2022-11-14T23:30:29.113Z,3.50
2022-11-14T23:32:55.699Z,3.62
2022-11-14T23:35:22.314Z,3.51
2022-11-14T23:37:48.911Z,3.18
2022-11-14T23:40:15.779Z,3.30
2022-11-14T23:42:42.393Z,3.51
2022-11-14T23:45:09.123Z,3.92
2022-11-14T23:47:35.799Z,3.75
2022-11-14T23:50:02.402Z,3.53
2022-11-14T23:52:29.008Z,3.63
2022-11-14T23:54:55.672Z,3.51
2022-11-14T23:57:22.263Z,3.50
2022-11-14T23:59:48.853Z,3.42
